Main page
METAR-TAF:

METAR-TAF

Airports :

Harbin, China

Harbin Taiping International Airport

latitude: 45-45N, longitude: 126-46E, elevation: 143 m

Current weather observation

The report was made 21 minutes ago, at 11:00 UTC
Wind 8 kt from the North
Temperature 11°C
Humidity 22%
Pressure 1014 hPa
Visibility 10 km or more
no clouds below 1500 m and no cumulonimbus

METAR: ZYHB 261100Z 36004MPS CAVOK 11/M10 Q1014 NOSIG

Time: 19:21 (11:21 UTC)

Forecast

The report was made 8 hours and 16 minutes ago, at 03:05 UTC
Forecast valid from 26 at 06 UTC to 27 at 06 UTC
Wind 17 kt from the North/Northwest with gusts up to 35 kt
Visibility: 6000 m
Scattered clouds at a height of 3000 ft
Becoming
from 26 at 09 UTC to 26 at 11 UTC
Wind 6 kt from the Northwest
Becoming
from 27 at 00 UTC to 27 at 01 UTC
Wind 10 kt from the Southwest

TAF: ZYHB 260305Z 2606/2706 34009G18MPS 6000 SCT030 TX15/2606Z TN02/2621Z BECMG 2609/2611 32003MPS BECMG 2700/2701 23005MPS

Weather observations and forecasts of more than 4000 airports (METAR and TAF reports).

The available stations are represented by yellow and red dots on the map.

Hover mouse over dot to see the name of the station.

Then click to see weather observations and forecasts.

To change the map : click on the green buttons with a black cross to zoom in, on the green button with a dash to zoom out, or on the green arrows for adjacent maps.


METAR-TAF: